VCTRY47 KNTU-KNTU
Flight info
| Callsign | VCTRY47 |
|---|---|
| Flight time | 2h 56m |
| Altitude | 17000 |
| Route | CANOB KW36A HOBOH ZIBUT KW45A IMELL KW36A ZINEP ROWZO HUGEE HENIP WENID |
| Aircraft | F18/H-A/C |
Departure
| Time | 2026-04-24 20:22 |
|---|---|
| Airport | Oceana Naval Air Station (KNTU) |
Arrival
| Time | 2026-04-24 23:18 |
|---|---|
| Airport | Oceana Naval Air Station (KNTU) |
| Time | Latitude | Longitude | Altitude | Speed | Heading |
|---|---|---|---|---|---|
| 2026-04-24 20:08 | 36.81405 | -76.03463 | 30 ft | 0 kts | 45° |
| 2026-04-24 20:17 | 36.81411 | -76.03457 | 30 ft | 9 kts | 24° |
| 2026-04-24 20:17 | 36.81537 | -76.03579 | 30 ft | 0 kts | 312° |
| 2026-04-24 20:17 | 36.81550 | -76.03597 | 30 ft | 10 kts | 314° |
| 2026-04-24 20:18 | 36.81573 | -76.03653 | 30 ft | 13 kts | 252° |
| 2026-04-24 20:18 | 36.81454 | -76.03793 | 30 ft | 22 kts | 222° |
| 2026-04-24 20:18 | 36.81320 | -76.03939 | 30 ft | 22 kts | 222° |
| 2026-04-24 20:18 | 36.81198 | -76.04076 | 30 ft | 27 kts | 223° |
| 2026-04-24 20:19 | 36.81058 | -76.04239 | 30 ft | 25 kts | 221° |
| 2026-04-24 20:19 | 36.80931 | -76.04376 | 30 ft | 23 kts | 221° |
| 2026-04-24 20:19 | 36.80796 | -76.04532 | 30 ft | 30 kts | 221° |
| 2026-04-24 20:19 | 36.80625 | -76.04722 | 30 ft | 36 kts | 221° |
| 2026-04-24 20:20 | 36.80507 | -76.04863 | 30 ft | 10 kts | 262° |
| 2026-04-24 20:20 | 36.80530 | -76.04910 | 30 ft | 0 kts | 316° |
| 2026-04-24 20:21 | 36.80585 | -76.04942 | 30 ft | 10 kts | 19° |
| 2026-04-24 20:21 | 36.80613 | -76.04916 | 30 ft | 0 kts | 43° |
| 2026-04-24 20:21 | 36.80958 | -76.04521 | 33 ft | 158 kts | 42° |
| 2026-04-24 20:21 | 36.82039 | -76.03328 | 413 ft | 262 kts | 43° |
| 2026-04-24 20:22 | 36.83431 | -76.01847 | 980 ft | 259 kts | 38° |
| 2026-04-24 20:22 | 36.84602 | -76.00182 | 1570 ft | 258 kts | 66° |
| 2026-04-24 20:22 | 36.84901 | -75.97950 | 2205 ft | 263 kts | 94° |
| 2026-04-24 20:22 | 36.84670 | -75.95696 | 2842 ft | 268 kts | 96° |
| 2026-04-24 20:23 | 36.84470 | -75.93355 | 3474 ft | 275 kts | 89° |
| 2026-04-24 20:23 | 36.84526 | -75.90950 | 4113 ft | 281 kts | 81° |
| 2026-04-24 20:23 | 36.84487 | -75.88464 | 4754 ft | 292 kts | 90° |
| 2026-04-24 20:23 | 36.84896 | -75.86035 | 5390 ft | 287 kts | 58° |
| 2026-04-24 20:24 | 36.85697 | -75.84743 | 5825 ft | 285 kts | 37° |
| 2026-04-24 20:24 | 36.88072 | -75.83455 | 6739 ft | 281 kts | 11° |
| 2026-04-24 20:24 | 36.89982 | -75.82852 | 7420 ft | 283 kts | 11° |
| 2026-04-24 20:24 | 36.91623 | -75.82324 | 8001 ft | 287 kts | 11° |
| 2026-04-24 20:25 | 36.91934 | -75.82223 | 8111 ft | 287 kts | 11° |
| 2026-04-24 20:25 | 36.93879 | -75.81587 | 8800 ft | 290 kts | 11° |
| 2026-04-24 20:25 | 36.95832 | -75.80935 | 9493 ft | 293 kts | 11° |
| 2026-04-24 20:26 | 36.97818 | -75.80262 | 10194 ft | 298 kts | 11° |
| 2026-04-24 20:26 | 36.99812 | -75.79573 | 10895 ft | 299 kts | 11° |
| 2026-04-24 20:26 | 37.01836 | -75.78858 | 11606 ft | 304 kts | 11° |
| 2026-04-24 20:26 | 37.03890 | -75.78116 | 11904 ft | 308 kts | 12° |
| 2026-04-24 20:27 | 37.05940 | -75.77353 | 11856 ft | 307 kts | 12° |
| 2026-04-24 20:27 | 37.07988 | -75.76569 | 11911 ft | 308 kts | 13° |
| 2026-04-24 20:27 | 37.10035 | -75.75757 | 11905 ft | 311 kts | 13° |
| 2026-04-24 20:27 | 37.12087 | -75.74911 | 11894 ft | 310 kts | 14° |
| 2026-04-24 20:28 | 37.14129 | -75.74038 | 11902 ft | 311 kts | 14° |
| 2026-04-24 20:28 | 37.16137 | -75.73139 | 11900 ft | 310 kts | 15° |
| 2026-04-24 20:28 | 37.18185 | -75.72175 | 11906 ft | 311 kts | 17° |
| 2026-04-24 20:28 | 37.20200 | -75.71170 | 11898 ft | 312 kts | 18° |
| 2026-04-24 20:29 | 37.21519 | -75.70474 | 11905 ft | 311 kts | 19° |
| 2026-04-24 20:29 | 37.24132 | -75.68988 | 11902 ft | 312 kts | 21° |
| 2026-04-24 20:29 | 37.26075 | -75.67762 | 11901 ft | 312 kts | 23° |
| 2026-04-24 20:29 | 37.27967 | -75.66430 | 11899 ft | 313 kts | 26° |
| 2026-04-24 20:30 | 37.29803 | -75.64952 | 11900 ft | 314 kts | 30° |
| 2026-04-24 20:30 | 37.31553 | -75.63290 | 11900 ft | 317 kts | 36° |
| 2026-04-24 20:30 | 37.33165 | -75.61393 | 11900 ft | 320 kts | 43° |
| 2026-04-24 20:30 | 37.34566 | -75.59205 | 11899 ft | 323 kts | 52° |
| 2026-04-24 20:31 | 37.35650 | -75.56717 | 11900 ft | 327 kts | 64° |
| 2026-04-24 20:31 | 37.36343 | -75.53975 | 11901 ft | 332 kts | 75° |
| 2026-04-24 20:31 | 37.36656 | -75.51091 | 11900 ft | 334 kts | 84° |
| 2026-04-24 20:31 | 37.36678 | -75.48171 | 11900 ft | 335 kts | 90° |
| 2026-04-24 20:32 | 37.36516 | -75.45247 | 11900 ft | 335 kts | 94° |
| 2026-04-24 20:32 | 37.36220 | -75.42036 | 11897 ft | 398 kts | 96° |
| 2026-04-24 20:32 | 37.35828 | -75.38661 | 11897 ft | 389 kts | 98° |
| 2026-04-24 20:32 | 37.35395 | -75.35303 | 11905 ft | 389 kts | 98° |
| 2026-04-24 20:33 | 37.34940 | -75.31946 | 11899 ft | 389 kts | 99° |
| 2026-04-24 20:33 | 37.34477 | -75.28595 | 11899 ft | 390 kts | 99° |
| 2026-04-24 20:33 | 37.34006 | -75.25230 | 11901 ft | 390 kts | 99° |
| 2026-04-24 20:33 | 37.33535 | -75.21876 | 11900 ft | 390 kts | 99° |
| 2026-04-24 20:34 | 37.33062 | -75.18515 | 11900 ft | 391 kts | 99° |
| 2026-04-24 20:34 | 37.32595 | -75.15204 | 11900 ft | 390 kts | 99° |
| 2026-04-24 20:34 | 37.32121 | -75.11846 | 11900 ft | 390 kts | 99° |
| 2026-04-24 20:34 | 37.31646 | -75.08486 | 11900 ft | 392 kts | 99° |
| 2026-04-24 20:35 | 37.31171 | -75.05120 | 11900 ft | 392 kts | 99° |
| 2026-04-24 20:35 | 37.30696 | -75.01751 | 11900 ft | 391 kts | 99° |
| 2026-04-24 20:35 | 37.30222 | -74.98393 | 11901 ft | 391 kts | 99° |
| 2026-04-24 20:35 | 37.29746 | -74.95025 | 11901 ft | 391 kts | 99° |
| 2026-04-24 20:36 | 37.29271 | -74.91660 | 11901 ft | 392 kts | 99° |
| 2026-04-24 20:36 | 37.28795 | -74.88290 | 11901 ft | 393 kts | 99° |
| 2026-04-24 20:36 | 37.28319 | -74.84915 | 11901 ft | 392 kts | 99° |
| 2026-04-24 20:36 | 37.27843 | -74.81541 | 11901 ft | 392 kts | 99° |
| 2026-04-24 20:37 | 37.27599 | -74.79814 | 11901 ft | 392 kts | 99° |
| 2026-04-24 20:37 | 37.27122 | -74.76441 | 11902 ft | 392 kts | 99° |
| 2026-04-24 20:37 | 37.26646 | -74.73066 | 11902 ft | 392 kts | 99° |
| 2026-04-24 20:37 | 37.26169 | -74.69693 | 11902 ft | 394 kts | 99° |
| 2026-04-24 20:38 | 37.25692 | -74.66312 | 11902 ft | 394 kts | 99° |
| 2026-04-24 20:38 | 37.25220 | -74.62974 | 11902 ft | 393 kts | 99° |
| 2026-04-24 20:38 | 37.24743 | -74.59592 | 11902 ft | 393 kts | 99° |
| 2026-04-24 20:38 | 37.24266 | -74.56216 | 11903 ft | 393 kts | 99° |
| 2026-04-24 20:39 | 37.23789 | -74.52838 | 11903 ft | 393 kts | 99° |
| 2026-04-24 20:39 | 37.23311 | -74.49457 | 11903 ft | 393 kts | 99° |
| 2026-04-24 20:39 | 37.22833 | -74.46072 | 11903 ft | 394 kts | 99° |
| 2026-04-24 20:39 | 37.22355 | -74.42685 | 11903 ft | 395 kts | 99° |
| 2026-04-24 20:40 | 37.21876 | -74.39294 | 11903 ft | 394 kts | 99° |
| 2026-04-24 20:40 | 37.21398 | -74.35910 | 11903 ft | 394 kts | 99° |
| 2026-04-24 20:40 | 37.20919 | -74.32522 | 11904 ft | 394 kts | 99° |
| 2026-04-24 20:40 | 37.20440 | -74.29131 | 11904 ft | 394 kts | 99° |
| 2026-04-24 20:41 | 37.19961 | -74.25739 | 11900 ft | 395 kts | 99° |
| 2026-04-24 20:41 | 37.19481 | -74.22343 | 11913 ft | 396 kts | 99° |
| 2026-04-24 20:41 | 37.19001 | -74.18946 | 11911 ft | 397 kts | 99° |
| 2026-04-24 20:41 | 37.18520 | -74.15544 | 11910 ft | 395 kts | 99° |
| 2026-04-24 20:42 | 37.18041 | -74.12146 | 11899 ft | 396 kts | 99° |
| 2026-04-24 20:42 | 37.17560 | -74.08742 | 11903 ft | 395 kts | 99° |
| 2026-04-24 20:42 | 37.17081 | -74.05354 | 11894 ft | 395 kts | 99° |
| 2026-04-24 20:42 | 37.16602 | -74.01963 | 11891 ft | 397 kts | 99° |
| 2026-04-24 20:43 | 37.16119 | -73.98550 | 11883 ft | 397 kts | 99° |
| 2026-04-24 20:43 | 37.15636 | -73.95125 | 11889 ft | 399 kts | 99° |
| 2026-04-24 20:43 | 37.15154 | -73.91712 | 11914 ft | 398 kts | 99° |
| 2026-04-24 20:43 | 37.14673 | -73.88321 | 11465 ft | 401 kts | 99° |
| 2026-04-24 20:44 | 37.14184 | -73.84852 | 10902 ft | 397 kts | 98° |
| 2026-04-24 20:44 | 37.13714 | -73.81521 | 10347 ft | 388 kts | 98° |
| 2026-04-24 20:44 | 37.13248 | -73.78213 | 9794 ft | 386 kts | 98° |
| 2026-04-24 20:44 | 37.12784 | -73.74934 | 9240 ft | 378 kts | 98° |
| 2026-04-24 20:45 | 37.12324 | -73.71681 | 8689 ft | 376 kts | 98° |
| 2026-04-24 20:45 | 37.11870 | -73.68486 | 8146 ft | 371 kts | 98° |
| 2026-04-24 20:45 | 37.11417 | -73.65293 | 7604 ft | 370 kts | 98° |
| 2026-04-24 20:45 | 37.10969 | -73.62147 | 7068 ft | 364 kts | 98° |
| 2026-04-24 20:46 | 37.10527 | -73.59043 | 6540 ft | 362 kts | 98° |
| 2026-04-24 20:46 | 37.10085 | -73.55944 | 6009 ft | 357 kts | 98° |
| 2026-04-24 20:46 | 37.09666 | -73.53031 | 5503 ft | 304 kts | 98° |
| 2026-04-24 20:46 | 37.09307 | -73.50522 | 5080 ft | 294 kts | 98° |
| 2026-04-24 20:47 | 37.08951 | -73.48052 | 4656 ft | 284 kts | 98° |
| 2026-04-24 20:47 | 37.08598 | -73.45620 | 4237 ft | 285 kts | 98° |
| 2026-04-24 20:47 | 37.08246 | -73.43216 | 3817 ft | 277 kts | 98° |
| 2026-04-24 20:47 | 37.07899 | -73.40850 | 3403 ft | 278 kts | 98° |
| 2026-04-24 20:48 | 37.07554 | -73.38507 | 2988 ft | 270 kts | 98° |
| 2026-04-24 20:48 | 37.07214 | -73.36197 | 2579 ft | 272 kts | 98° |
| 2026-04-24 20:48 | 37.06874 | -73.33897 | 2588 ft | 267 kts | 98° |
| 2026-04-24 20:48 | 37.06539 | -73.31630 | 2573 ft | 270 kts | 98° |
| 2026-04-24 20:49 | 37.06199 | -73.29337 | 2556 ft | 267 kts | 99° |
| 2026-04-24 20:49 | 37.05859 | -73.27039 | 2571 ft | 269 kts | 99° |
| 2026-04-24 20:49 | 37.05520 | -73.24752 | 2575 ft | 269 kts | 99° |
| 2026-04-24 20:49 | 37.05179 | -73.22449 | 2569 ft | 267 kts | 99° |
| 2026-04-24 20:50 | 37.04840 | -73.20161 | 2567 ft | 270 kts | 99° |
| 2026-04-24 20:50 | 37.04500 | -73.17864 | 2549 ft | 267 kts | 99° |
| 2026-04-24 20:50 | 37.04150 | -73.15571 | 2014 ft | 270 kts | 101° |
| 2026-04-24 20:50 | 37.03654 | -73.13295 | 1288 ft | 270 kts | 106° |
| 2026-04-24 20:51 | 37.03038 | -73.11102 | 1137 ft | 267 kts | 111° |
| 2026-04-24 20:51 | 37.02380 | -73.08914 | 1160 ft | 270 kts | 108° |
| 2026-04-24 20:51 | 37.01786 | -73.06695 | 1203 ft | 268 kts | 108° |
| 2026-04-24 20:51 | 37.01929 | -73.04500 | 1533 ft | 262 kts | 49° |
| 2026-04-24 20:52 | 37.03495 | -73.04091 | 2231 ft | 255 kts | 324° |
| 2026-04-24 20:52 | 37.04355 | -73.06034 | 2506 ft | 263 kts | 291° |
| 2026-04-24 20:52 | 37.04783 | -73.07462 | 2311 ft | 265 kts | 290° |
| 2026-04-24 20:52 | 37.05267 | -73.09542 | 1994 ft | 230 kts | 282° |
| 2026-04-24 20:53 | 37.04928 | -73.11185 | 1708 ft | 177 kts | 222° |
| 2026-04-24 20:53 | 37.03836 | -73.11411 | 1023 ft | 152 kts | 160° |
| 2026-04-24 20:53 | 37.03079 | -73.10549 | 628 ft | 150 kts | 113° |
| 2026-04-24 20:53 | 37.02822 | -73.09324 | 440 ft | 145 kts | 100° |
| 2026-04-24 20:54 | 37.02623 | -73.08109 | 454 ft | 145 kts | 104° |
| 2026-04-24 20:54 | 37.02297 | -73.06912 | 294 ft | 145 kts | 104° |
| 2026-04-24 20:54 | 37.02042 | -73.05695 | 96 ft | 145 kts | 102° |
| 2026-04-24 20:54 | 37.01924 | -73.05201 | 73 ft | 37 kts | 102° |
| 2026-04-24 20:55 | 37.01830 | -73.04905 | 73 ft | 35 kts | 216° |
| 2026-04-24 20:55 | 37.01741 | -73.04625 | 73 ft | 35 kts | 217° |
| 2026-04-24 20:55 | 37.01657 | -73.04339 | 73 ft | 35 kts | 217° |
| 2026-04-24 20:55 | 37.01574 | -73.04053 | 73 ft | 35 kts | 217° |
| 2026-04-24 20:56 | 37.01491 | -73.03767 | 73 ft | 35 kts | 217° |
| 2026-04-24 20:56 | 37.01407 | -73.03480 | 73 ft | 35 kts | 217° |
| 2026-04-24 20:56 | 37.01324 | -73.03194 | 73 ft | 35 kts | 217° |
| 2026-04-24 20:56 | 37.01241 | -73.02908 | 73 ft | 35 kts | 217° |
| 2026-04-24 20:57 | 37.01157 | -73.02622 | 73 ft | 35 kts | 217° |
| 2026-04-24 20:57 | 37.01130 | -73.02526 | 73 ft | 35 kts | 217° |
| 2026-04-24 20:57 | 37.01079 | -73.02353 | 73 ft | 35 kts | 217° |
| 2026-04-24 20:57 | 37.00996 | -73.02067 | 73 ft | 35 kts | 217° |
| 2026-04-24 20:58 | 37.00914 | -73.01785 | 73 ft | 35 kts | 217° |
| 2026-04-24 20:58 | 37.00823 | -73.01496 | 73 ft | 37 kts | 165° |
| 2026-04-24 20:58 | 37.00740 | -73.01171 | 73 ft | 40 kts | 105° |
| 2026-04-24 20:58 | 37.00652 | -73.00869 | 73 ft | 35 kts | 108° |
| 2026-04-24 20:59 | 37.00569 | -73.00583 | 73 ft | 35 kts | 108° |
| 2026-04-24 20:59 | 37.00481 | -73.00279 | 73 ft | 105 kts | 108° |
| 2026-04-24 20:59 | 36.99938 | -72.98357 | 1093 ft | 246 kts | 109° |
| 2026-04-24 20:59 | 36.99323 | -72.96394 | 2238 ft | 252 kts | 111° |
| 2026-04-24 21:00 | 36.98020 | -72.94607 | 2708 ft | 330 kts | 160° |
| 2026-04-24 21:00 | 36.95629 | -72.93621 | 3394 ft | 389 kts | 156° |
| 2026-04-24 21:00 | 36.93429 | -72.91566 | 4818 ft | 405 kts | 130° |
| 2026-04-24 21:00 | 36.92474 | -72.88485 | 6926 ft | 372 kts | 105° |
| 2026-04-24 21:01 | 36.91682 | -72.85352 | 8627 ft | 392 kts | 106° |
| 2026-04-24 21:01 | 36.90836 | -72.81985 | 9806 ft | 419 kts | 106° |
| 2026-04-24 21:01 | 36.89951 | -72.78406 | 11038 ft | 443 kts | 106° |
| 2026-04-24 21:01 | 36.89029 | -72.74655 | 12317 ft | 459 kts | 107° |
| 2026-04-24 21:02 | 36.88092 | -72.70806 | 13629 ft | 468 kts | 106° |
| 2026-04-24 21:02 | 36.87244 | -72.66842 | 14959 ft | 475 kts | 101° |
| 2026-04-24 21:02 | 36.86506 | -72.62772 | 16004 ft | 494 kts | 101° |
| 2026-04-24 21:02 | 36.85947 | -72.58546 | 15677 ft | 490 kts | 97° |
| 2026-04-24 21:03 | 36.85439 | -72.54318 | 15790 ft | 495 kts | 97° |
| 2026-04-24 21:03 | 36.84931 | -72.50087 | 15778 ft | 491 kts | 97° |
| 2026-04-24 21:03 | 36.84423 | -72.45856 | 15760 ft | 495 kts | 97° |
| 2026-04-24 21:03 | 36.83911 | -72.41601 | 15776 ft | 495 kts | 97° |
| 2026-04-24 21:04 | 36.83398 | -72.37340 | 15770 ft | 495 kts | 97° |
| 2026-04-24 21:04 | 36.82887 | -72.33091 | 15768 ft | 495 kts | 97° |
| 2026-04-24 21:04 | 36.82382 | -72.28899 | 15769 ft | 495 kts | 97° |
| 2026-04-24 21:04 | 36.81870 | -72.24635 | 15772 ft | 495 kts | 97° |
| 2026-04-24 21:05 | 36.81359 | -72.20395 | 15769 ft | 495 kts | 97° |
| 2026-04-24 21:05 | 36.80846 | -72.16139 | 15770 ft | 495 kts | 97° |
| 2026-04-24 21:05 | 36.80334 | -72.11888 | 15770 ft | 495 kts | 97° |
| 2026-04-24 21:05 | 36.79824 | -72.07659 | 15767 ft | 492 kts | 97° |
| 2026-04-24 21:06 | 36.79316 | -72.03430 | 15771 ft | 491 kts | 97° |
| 2026-04-24 21:06 | 36.78808 | -71.99206 | 15770 ft | 494 kts | 97° |
| 2026-04-24 21:06 | 36.78293 | -71.94948 | 15769 ft | 496 kts | 97° |
| 2026-04-24 21:06 | 36.77777 | -71.90702 | 15771 ft | 497 kts | 97° |
| 2026-04-24 21:07 | 36.77257 | -71.86426 | 15769 ft | 498 kts | 97° |
| 2026-04-24 21:07 | 36.76738 | -71.82152 | 15770 ft | 498 kts | 97° |
| 2026-04-24 21:07 | 36.76218 | -71.77874 | 15770 ft | 498 kts | 97° |
| 2026-04-24 21:07 | 36.75962 | -71.73612 | 15763 ft | 492 kts | 83° |
| 2026-04-24 21:08 | 36.76695 | -71.69477 | 15785 ft | 489 kts | 64° |
| 2026-04-24 21:08 | 36.78355 | -71.65888 | 15768 ft | 474 kts | 45° |
| 2026-04-24 21:08 | 36.80782 | -71.63184 | 15771 ft | 463 kts | 26° |
| 2026-04-24 21:08 | 36.83643 | -71.61438 | 15778 ft | 454 kts | 17° |
| 2026-04-24 21:09 | 36.86508 | -71.59923 | 15749 ft | 453 kts | 17° |
| 2026-04-24 21:09 | 36.89459 | -71.58592 | 15778 ft | 446 kts | 5° |
| 2026-04-24 21:09 | 36.92493 | -71.58433 | 15786 ft | 431 kts | 346° |
| 2026-04-24 21:09 | 36.95282 | -71.59549 | 15761 ft | 414 kts | 327° |
| 2026-04-24 21:10 | 36.97496 | -71.61799 | 15773 ft | 410 kts | 307° |
| 2026-04-24 21:10 | 36.98880 | -71.64879 | 15773 ft | 405 kts | 289° |
| 2026-04-24 21:10 | 36.99678 | -71.68268 | 15763 ft | 407 kts | 286° |
| 2026-04-24 21:10 | 37.00430 | -71.71694 | 15766 ft | 408 kts | 286° |
| 2026-04-24 21:11 | 37.01176 | -71.75102 | 15774 ft | 405 kts | 286° |
| 2026-04-24 21:11 | 37.01924 | -71.78520 | 15770 ft | 408 kts | 286° |
| 2026-04-24 21:11 | 37.02667 | -71.81915 | 15769 ft | 408 kts | 286° |
| 2026-04-24 21:11 | 37.03416 | -71.85339 | 15771 ft | 408 kts | 286° |
| 2026-04-24 21:12 | 37.04166 | -71.88765 | 15770 ft | 408 kts | 286° |
| 2026-04-24 21:12 | 37.04917 | -71.92198 | 15770 ft | 408 kts | 286° |
| 2026-04-24 21:12 | 37.05666 | -71.95623 | 15770 ft | 408 kts | 286° |
| 2026-04-24 21:12 | 37.06407 | -71.99051 | 15769 ft | 404 kts | 283° |
| 2026-04-24 21:13 | 37.06787 | -72.02567 | 15775 ft | 412 kts | 277° |
| 2026-04-24 21:13 | 37.07052 | -72.06125 | 15768 ft | 413 kts | 277° |
| 2026-04-24 21:13 | 37.07316 | -72.09725 | 15770 ft | 415 kts | 277° |
| 2026-04-24 21:13 | 37.07580 | -72.13335 | 15771 ft | 417 kts | 277° |
| 2026-04-24 21:14 | 37.07845 | -72.16952 | 15769 ft | 417 kts | 277° |
| 2026-04-24 21:14 | 37.08101 | -72.20456 | 15770 ft | 416 kts | 277° |
| 2026-04-24 21:14 | 37.08374 | -72.24179 | 15771 ft | 413 kts | 277° |
| 2026-04-24 21:14 | 37.08636 | -72.27772 | 15772 ft | 416 kts | 277° |
| 2026-04-24 21:15 | 37.08900 | -72.31376 | 15768 ft | 417 kts | 277° |
| 2026-04-24 21:15 | 37.09165 | -72.34995 | 15770 ft | 416 kts | 277° |
| 2026-04-24 21:15 | 37.09427 | -72.38583 | 15771 ft | 414 kts | 277° |
| 2026-04-24 21:15 | 37.09691 | -72.42192 | 15769 ft | 417 kts | 277° |
| 2026-04-24 21:16 | 37.09956 | -72.45806 | 15770 ft | 417 kts | 277° |
| 2026-04-24 21:16 | 37.10224 | -72.49434 | 15771 ft | 417 kts | 277° |
| 2026-04-24 21:16 | 37.10491 | -72.53046 | 15770 ft | 417 kts | 277° |
| 2026-04-24 21:16 | 37.10759 | -72.56665 | 15769 ft | 417 kts | 277° |
| 2026-04-24 21:17 | 37.11027 | -72.60291 | 15771 ft | 417 kts | 277° |
| 2026-04-24 21:17 | 37.11295 | -72.63915 | 15770 ft | 417 kts | 277° |
| 2026-04-24 21:17 | 37.11562 | -72.67526 | 15770 ft | 417 kts | 277° |
| 2026-04-24 21:17 | 37.11739 | -72.69927 | 15770 ft | 417 kts | 277° |
| 2026-04-24 21:18 | 37.12097 | -72.74776 | 15770 ft | 418 kts | 277° |
| 2026-04-24 21:18 | 37.12368 | -72.78412 | 15770 ft | 418 kts | 277° |
| 2026-04-24 21:18 | 37.12635 | -72.81995 | 15770 ft | 418 kts | 277° |
| 2026-04-24 21:18 | 37.12906 | -72.85631 | 15770 ft | 418 kts | 277° |
| 2026-04-24 21:19 | 37.13176 | -72.89257 | 15769 ft | 416 kts | 277° |
| 2026-04-24 21:19 | 37.13444 | -72.92862 | 15771 ft | 417 kts | 277° |
| 2026-04-24 21:19 | 37.13715 | -72.96493 | 15770 ft | 418 kts | 277° |
| 2026-04-24 21:19 | 37.13805 | -73.00142 | 15761 ft | 421 kts | 265° |
| 2026-04-24 21:20 | 37.11127 | -73.06659 | 15770 ft | 443 kts | 226° |
| 2026-04-24 21:20 | 37.08519 | -73.08795 | 15768 ft | 456 kts | 207° |
| 2026-04-24 21:20 | 37.05453 | -73.09933 | 15780 ft | 464 kts | 196° |
| 2026-04-24 21:21 | 37.02239 | -73.10446 | 15763 ft | 467 kts | 186° |
| 2026-04-24 21:21 | 36.98959 | -73.10397 | 15777 ft | 472 kts | 182° |
| 2026-04-24 21:21 | 36.95664 | -73.10219 | 15772 ft | 476 kts | 176° |
| 2026-04-24 21:21 | 36.92508 | -73.09095 | 15767 ft | 484 kts | 157° |
| 2026-04-24 21:22 | 36.89699 | -73.06763 | 15780 ft | 488 kts | 139° |
| 2026-04-24 21:22 | 36.87558 | -73.03444 | 15764 ft | 494 kts | 120° |
| 2026-04-24 21:22 | 36.86305 | -72.99461 | 15773 ft | 493 kts | 101° |
| 2026-04-24 21:22 | 36.85702 | -72.95248 | 15768 ft | 493 kts | 98° |
| 2026-04-24 21:23 | 36.85166 | -72.91012 | 15759 ft | 492 kts | 97° |
| 2026-04-24 21:23 | 36.84632 | -72.86787 | 15775 ft | 493 kts | 97° |
| 2026-04-24 21:23 | 36.84106 | -72.82621 | 15769 ft | 492 kts | 97° |
| 2026-04-24 21:23 | 36.83572 | -72.78389 | 15770 ft | 492 kts | 97° |
| 2026-04-24 21:24 | 36.83038 | -72.74162 | 15771 ft | 492 kts | 97° |
| 2026-04-24 21:24 | 36.82505 | -72.69944 | 15770 ft | 492 kts | 97° |
| 2026-04-24 21:24 | 36.81972 | -72.65715 | 15770 ft | 493 kts | 97° |
| 2026-04-24 21:24 | 36.81438 | -72.61487 | 15769 ft | 493 kts | 97° |
| 2026-04-24 21:25 | 36.80906 | -72.57267 | 15771 ft | 493 kts | 97° |
| 2026-04-24 21:25 | 36.80376 | -72.53038 | 15770 ft | 493 kts | 97° |
| 2026-04-24 21:25 | 36.79853 | -72.48867 | 15770 ft | 493 kts | 97° |
| 2026-04-24 21:25 | 36.79324 | -72.44646 | 15770 ft | 493 kts | 97° |
| 2026-04-24 21:26 | 36.78795 | -72.40423 | 15771 ft | 493 kts | 97° |
| 2026-04-24 21:26 | 36.78266 | -72.36196 | 15770 ft | 493 kts | 97° |
| 2026-04-24 21:26 | 36.77737 | -72.31977 | 15770 ft | 493 kts | 97° |
| 2026-04-24 21:26 | 36.77208 | -72.27750 | 15770 ft | 493 kts | 97° |
| 2026-04-24 21:27 | 36.76678 | -72.23524 | 15770 ft | 492 kts | 97° |
| 2026-04-24 21:27 | 36.76154 | -72.19334 | 15770 ft | 490 kts | 97° |
| 2026-04-24 21:27 | 36.75629 | -72.15123 | 15771 ft | 492 kts | 97° |
| 2026-04-24 21:27 | 36.75105 | -72.10891 | 15769 ft | 492 kts | 97° |
| 2026-04-24 21:28 | 36.74589 | -72.06727 | 15771 ft | 492 kts | 97° |
| 2026-04-24 21:28 | 36.74068 | -72.02516 | 15770 ft | 492 kts | 97° |
| 2026-04-24 21:28 | 36.73545 | -71.98293 | 15770 ft | 493 kts | 97° |
| 2026-04-24 21:28 | 36.73014 | -71.94051 | 15770 ft | 492 kts | 97° |
| 2026-04-24 21:29 | 36.72483 | -71.89821 | 15770 ft | 496 kts | 97° |
| 2026-04-24 21:29 | 36.72321 | -71.85550 | 15768 ft | 492 kts | 81° |
| 2026-04-24 21:29 | 36.73168 | -71.81468 | 15781 ft | 484 kts | 62° |
| 2026-04-24 21:29 | 36.74903 | -71.78008 | 15766 ft | 473 kts | 43° |
| 2026-04-24 21:30 | 36.77380 | -71.75423 | 15772 ft | 460 kts | 24° |
| 2026-04-24 21:30 | 36.80251 | -71.73751 | 15771 ft | 454 kts | 17° |
| 2026-04-24 21:30 | 36.83170 | -71.72233 | 15754 ft | 453 kts | 17° |
| 2026-04-24 21:30 | 36.86170 | -71.71316 | 15797 ft | 439 kts | 358° |
| 2026-04-24 21:31 | 36.89152 | -71.71687 | 15773 ft | 427 kts | 339° |
| 2026-04-24 21:31 | 36.91755 | -71.73289 | 15765 ft | 413 kts | 319° |
| 2026-04-24 21:31 | 36.93678 | -71.75917 | 15774 ft | 411 kts | 300° |
| 2026-04-24 21:31 | 36.94699 | -71.79233 | 15769 ft | 412 kts | 281° |
| 2026-04-24 21:32 | 36.95035 | -71.82761 | 15766 ft | 413 kts | 277° |
| 2026-04-24 21:32 | 36.95299 | -71.86342 | 15765 ft | 413 kts | 277° |
| 2026-04-24 21:32 | 36.95558 | -71.89922 | 15771 ft | 413 kts | 277° |
| 2026-04-24 21:32 | 36.95817 | -71.93504 | 15770 ft | 413 kts | 277° |
| 2026-04-24 21:33 | 36.96075 | -71.97083 | 15770 ft | 413 kts | 277° |
| 2026-04-24 21:33 | 36.96247 | -71.99451 | 15771 ft | 413 kts | 277° |
| 2026-04-24 21:33 | 36.96600 | -72.04256 | 15771 ft | 414 kts | 277° |
| 2026-04-24 21:33 | 36.96870 | -72.07853 | 15771 ft | 417 kts | 277° |
| 2026-04-24 21:34 | 36.97378 | -72.11400 | 15541 ft | 410 kts | 291° |
| 2026-04-24 21:34 | 36.98713 | -72.14551 | 15347 ft | 413 kts | 306° |
| 2026-04-24 21:34 | 37.00482 | -72.17301 | 14789 ft | 408 kts | 309° |
| 2026-04-24 21:34 | 37.02384 | -72.19928 | 14228 ft | 406 kts | 309° |
| 2026-04-24 21:35 | 37.04130 | -72.22693 | 14157 ft | 406 kts | 305° |
| 2026-04-24 21:35 | 37.05826 | -72.25516 | 14036 ft | 403 kts | 306° |
| 2026-04-24 21:35 | 37.07478 | -72.28345 | 13825 ft | 403 kts | 304° |
| 2026-04-24 21:35 | 37.09110 | -72.31191 | 13610 ft | 401 kts | 304° |
| 2026-04-24 21:36 | 37.10728 | -72.34032 | 13446 ft | 401 kts | 304° |
| 2026-04-24 21:36 | 37.12333 | -72.36889 | 13339 ft | 400 kts | 304° |
| 2026-04-24 21:36 | 37.13908 | -72.39755 | 13510 ft | 398 kts | 303° |
| 2026-04-24 21:36 | 37.15457 | -72.42660 | 13773 ft | 400 kts | 301° |
| 2026-04-24 21:37 | 37.16818 | -72.45691 | 13740 ft | 399 kts | 297° |
| 2026-04-24 21:37 | 37.18110 | -72.48791 | 14047 ft | 400 kts | 297° |
| 2026-04-24 21:37 | 37.19369 | -72.51919 | 14377 ft | 404 kts | 296° |
| 2026-04-24 21:37 | 37.20595 | -72.55112 | 14767 ft | 407 kts | 295° |
| 2026-04-24 21:38 | 37.21769 | -72.58358 | 15214 ft | 410 kts | 294° |
| 2026-04-24 21:38 | 37.22933 | -72.61636 | 15615 ft | 412 kts | 296° |
| 2026-04-24 21:38 | 37.24214 | -72.64836 | 15847 ft | 412 kts | 297° |
| 2026-04-24 21:38 | 37.25522 | -72.68059 | 16151 ft | 416 kts | 297° |
| 2026-04-24 21:39 | 37.26858 | -72.71284 | 16169 ft | 414 kts | 298° |
| 2026-04-24 21:39 | 37.28287 | -72.74417 | 15846 ft | 413 kts | 300° |
| 2026-04-24 21:39 | 37.29759 | -72.77513 | 15575 ft | 413 kts | 301° |
| 2026-04-24 21:39 | 37.31282 | -72.80561 | 15349 ft | 412 kts | 304° |
| 2026-04-24 21:40 | 37.32926 | -72.83495 | 15156 ft | 409 kts | 306° |
| 2026-04-24 21:40 | 37.34684 | -72.86325 | 15271 ft | 411 kts | 308° |
| 2026-04-24 21:40 | 37.36548 | -72.89063 | 15416 ft | 414 kts | 311° |
| 2026-04-24 21:40 | 37.38598 | -72.91622 | 15594 ft | 415 kts | 317° |
| 2026-04-24 21:41 | 37.40755 | -72.93381 | 16014 ft | 305 kts | 342° |
| 2026-04-24 21:41 | 37.42129 | -72.92473 | 16390 ft | 197 kts | 113° |
| 2026-04-24 21:41 | 37.41671 | -72.90828 | 15329 ft | 236 kts | 114° |
| 2026-04-24 21:41 | 37.40741 | -72.88631 | 15586 ft | 342 kts | 118° |
| 2026-04-24 21:42 | 37.39606 | -72.85389 | 16398 ft | 466 kts | 110° |
| 2026-04-24 21:42 | 37.38438 | -72.81140 | 17521 ft | 545 kts | 103° |
| 2026-04-24 21:42 | 37.38309 | -72.78419 | 18199 ft | 392 kts | 60° |
| 2026-04-24 21:42 | 37.39500 | -72.76044 | 18053 ft | 287 kts | 31° |
| 2026-04-24 21:43 | 37.41340 | -72.74793 | 16675 ft | 328 kts | 24° |
| 2026-04-24 21:43 | 37.44124 | -72.73572 | 16811 ft | 322 kts | 359° |
| 2026-04-24 21:43 | 37.46306 | -72.73757 | 16772 ft | 310 kts | 337° |
| 2026-04-24 21:43 | 37.48156 | -72.75026 | 16822 ft | 301 kts | 314° |
| 2026-04-24 21:44 | 37.49056 | -72.76399 | 16823 ft | 303 kts | 298° |
| 2026-04-24 21:44 | 37.49771 | -72.78892 | 16854 ft | 305 kts | 284° |
| 2026-04-24 21:44 | 37.50122 | -72.81474 | 16886 ft | 314 kts | 281° |
| 2026-04-24 21:44 | 37.50381 | -72.84170 | 16909 ft | 292 kts | 279° |
| 2026-04-24 21:45 | 37.50647 | -72.86685 | 16898 ft | 293 kts | 280° |
| 2026-04-24 21:45 | 37.50966 | -72.89237 | 16903 ft | 296 kts | 282° |
| 2026-04-24 21:45 | 37.51362 | -72.91787 | 16933 ft | 297 kts | 284° |
| 2026-04-24 21:45 | 37.51821 | -72.94311 | 16965 ft | 293 kts | 285° |
| 2026-04-24 21:46 | 37.52332 | -72.96772 | 16976 ft | 286 kts | 287° |
| 2026-04-24 21:46 | 37.52881 | -72.99180 | 16961 ft | 286 kts | 288° |
| 2026-04-24 21:46 | 37.53469 | -73.01576 | 16915 ft | 286 kts | 289° |
| 2026-04-24 21:46 | 37.54086 | -73.03955 | 16894 ft | 286 kts | 289° |
| 2026-04-24 21:47 | 37.54726 | -73.06325 | 16901 ft | 285 kts | 290° |
| 2026-04-24 21:47 | 37.55384 | -73.08689 | 16937 ft | 287 kts | 290° |
| 2026-04-24 21:47 | 37.56058 | -73.11061 | 16959 ft | 288 kts | 291° |
| 2026-04-24 21:47 | 37.56742 | -73.13436 | 16947 ft | 288 kts | 291° |
| 2026-04-24 21:48 | 37.57431 | -73.15809 | 16910 ft | 288 kts | 291° |
| 2026-04-24 21:48 | 37.58121 | -73.18175 | 16899 ft | 287 kts | 291° |
| 2026-04-24 21:48 | 37.58810 | -73.20533 | 16925 ft | 287 kts | 291° |
| 2026-04-24 21:48 | 37.59500 | -73.22897 | 16956 ft | 287 kts | 291° |
| 2026-04-24 21:49 | 37.60191 | -73.25265 | 16954 ft | 288 kts | 291° |
| 2026-04-24 21:49 | 37.60767 | -73.27402 | 16904 ft | 290 kts | 283° |
| 2026-04-24 21:49 | 37.60833 | -73.27867 | 16893 ft | 290 kts | 279° |
| 2026-04-24 21:49 | 37.60755 | -73.30401 | 16975 ft | 295 kts | 262° |
| 2026-04-24 21:50 | 37.60053 | -73.32871 | 16957 ft | 306 kts | 243° |
| 2026-04-24 21:50 | 37.58608 | -73.34895 | 16985 ft | 320 kts | 222° |
| 2026-04-24 21:50 | 37.57263 | -73.35860 | 17008 ft | 330 kts | 207° |
| 2026-04-24 21:50 | 37.55003 | -73.36475 | 17015 ft | 345 kts | 187° |
| 2026-04-24 21:51 | 37.52597 | -73.36065 | 16990 ft | 357 kts | 166° |
| 2026-04-24 21:51 | 37.50372 | -73.34629 | 16961 ft | 365 kts | 144° |
| 2026-04-24 21:51 | 37.48618 | -73.32322 | 16954 ft | 368 kts | 123° |
| 2026-04-24 21:51 | 37.47558 | -73.29446 | 16972 ft | 367 kts | 102° |
| 2026-04-24 21:52 | 37.47175 | -73.26287 | 17016 ft | 365 kts | 90° |
| 2026-04-24 21:52 | 37.47063 | -73.23099 | 16966 ft | 365 kts | 88° |
| 2026-04-24 21:52 | 37.46969 | -73.19914 | 16910 ft | 364 kts | 90° |
| 2026-04-24 21:52 | 37.46786 | -73.16730 | 16911 ft | 366 kts | 93° |
| 2026-04-24 21:53 | 37.46473 | -73.13504 | 16950 ft | 367 kts | 96° |
| 2026-04-24 21:53 | 37.46026 | -73.10362 | 16738 ft | 372 kts | 100° |
| 2026-04-24 21:53 | 37.45409 | -73.07184 | 16529 ft | 375 kts | 109° |
| 2026-04-24 21:53 | 37.44091 | -73.04374 | 16329 ft | 380 kts | 135° |
| 2026-04-24 21:54 | 37.41933 | -73.02375 | 16134 ft | 398 kts | 160° |
| 2026-04-24 21:54 | 37.39183 | -73.01499 | 15929 ft | 420 kts | 182° |
| 2026-04-24 21:54 | 37.36318 | -73.01582 | 15737 ft | 407 kts | 188° |
| 2026-04-24 21:54 | 37.33489 | -73.01765 | 15511 ft | 408 kts | 188° |
| 2026-04-24 21:55 | 37.30650 | -73.01924 | 15282 ft | 407 kts | 187° |
| 2026-04-24 21:55 | 37.27827 | -73.02054 | 15056 ft | 406 kts | 187° |
| 2026-04-24 21:55 | 37.25006 | -73.02149 | 14830 ft | 405 kts | 186° |
| 2026-04-24 21:55 | 37.22186 | -73.02093 | 14604 ft | 408 kts | 179° |
| 2026-04-24 21:56 | 37.19365 | -73.01668 | 14380 ft | 408 kts | 178° |
| 2026-04-24 21:56 | 37.16560 | -73.01222 | 14158 ft | 405 kts | 177° |
| 2026-04-24 21:56 | 37.13769 | -73.00782 | 13937 ft | 404 kts | 178° |
| 2026-04-24 21:56 | 37.10975 | -73.00344 | 13715 ft | 404 kts | 178° |
| 2026-04-24 21:57 | 37.08190 | -72.99906 | 13492 ft | 402 kts | 177° |
| 2026-04-24 21:57 | 37.05422 | -72.99474 | 13443 ft | 401 kts | 178° |
| 2026-04-24 21:57 | 37.02683 | -72.99050 | 13431 ft | 401 kts | 178° |
| 2026-04-24 21:57 | 36.99928 | -72.98621 | 13426 ft | 400 kts | 178° |
| 2026-04-24 21:58 | 36.97161 | -72.98190 | 13432 ft | 401 kts | 178° |
| 2026-04-24 21:58 | 36.94391 | -72.97758 | 13430 ft | 401 kts | 178° |
| 2026-04-24 21:58 | 36.91631 | -72.97328 | 13429 ft | 398 kts | 178° |
| 2026-04-24 21:58 | 36.88871 | -72.96899 | 13456 ft | 399 kts | 177° |
| 2026-04-24 21:59 | 36.86130 | -72.96477 | 14035 ft | 398 kts | 178° |
| 2026-04-24 21:59 | 36.83414 | -72.95574 | 14594 ft | 415 kts | 157° |
| 2026-04-24 21:59 | 36.81048 | -72.93453 | 15203 ft | 426 kts | 134° |
| 2026-04-24 21:59 | 36.79407 | -72.90393 | 15824 ft | 424 kts | 112° |
| 2026-04-24 22:00 | 36.78666 | -72.86856 | 16467 ft | 426 kts | 98° |
| 2026-04-24 22:00 | 36.78186 | -72.83158 | 17096 ft | 438 kts | 97° |
| 2026-04-24 22:00 | 36.77701 | -72.79383 | 16977 ft | 435 kts | 98° |
| 2026-04-24 22:00 | 36.77146 | -72.75665 | 17029 ft | 439 kts | 99° |
| 2026-04-24 22:01 | 36.76570 | -72.71915 | 17026 ft | 437 kts | 99° |
| 2026-04-24 22:01 | 36.75997 | -72.68182 | 17015 ft | 440 kts | 99° |
| 2026-04-24 22:01 | 36.75423 | -72.64434 | 17020 ft | 440 kts | 99° |
| 2026-04-24 22:01 | 36.74849 | -72.60685 | 17020 ft | 436 kts | 99° |
| 2026-04-24 22:02 | 36.74280 | -72.56964 | 17020 ft | 439 kts | 99° |
| 2026-04-24 22:02 | 36.73709 | -72.53219 | 17020 ft | 439 kts | 99° |
| 2026-04-24 22:02 | 36.73141 | -72.49493 | 17022 ft | 436 kts | 99° |
| 2026-04-24 22:02 | 36.72572 | -72.45774 | 17020 ft | 439 kts | 99° |
| 2026-04-24 22:03 | 36.72007 | -72.42072 | 17019 ft | 439 kts | 99° |
| 2026-04-24 22:03 | 36.71435 | -72.38330 | 17021 ft | 439 kts | 99° |
| 2026-04-24 22:03 | 36.70867 | -72.34585 | 17020 ft | 439 kts | 99° |
| 2026-04-24 22:03 | 36.70300 | -72.30846 | 17020 ft | 439 kts | 99° |
| 2026-04-24 22:04 | 36.69731 | -72.27090 | 17020 ft | 439 kts | 99° |
| 2026-04-24 22:04 | 36.69165 | -72.23354 | 17017 ft | 439 kts | 99° |
| 2026-04-24 22:04 | 36.68598 | -72.19617 | 17021 ft | 439 kts | 99° |
| 2026-04-24 22:04 | 36.68031 | -72.15876 | 17019 ft | 437 kts | 99° |
| 2026-04-24 22:05 | 36.67468 | -72.12161 | 17021 ft | 437 kts | 99° |
| 2026-04-24 22:05 | 36.66904 | -72.08431 | 17019 ft | 438 kts | 99° |
| 2026-04-24 22:05 | 36.66345 | -72.04727 | 17022 ft | 437 kts | 99° |
| 2026-04-24 22:05 | 36.65784 | -72.00993 | 17019 ft | 439 kts | 99° |
| 2026-04-24 22:06 | 36.65221 | -71.97245 | 17020 ft | 442 kts | 99° |
| 2026-04-24 22:06 | 36.64655 | -71.93499 | 17020 ft | 438 kts | 99° |
| 2026-04-24 22:06 | 36.64086 | -71.89743 | 17020 ft | 442 kts | 99° |
| 2026-04-24 22:06 | 36.63526 | -71.86038 | 17019 ft | 442 kts | 99° |
| 2026-04-24 22:07 | 36.62956 | -71.82269 | 17020 ft | 441 kts | 99° |
| 2026-04-24 22:07 | 36.62387 | -71.78511 | 17020 ft | 441 kts | 99° |
| 2026-04-24 22:07 | 36.61818 | -71.74747 | 17020 ft | 441 kts | 99° |
| 2026-04-24 22:07 | 36.61250 | -71.70994 | 17020 ft | 441 kts | 99° |
| 2026-04-24 22:08 | 36.60682 | -71.67242 | 17020 ft | 442 kts | 99° |
| 2026-04-24 22:08 | 36.60111 | -71.63477 | 17020 ft | 443 kts | 99° |
| 2026-04-24 22:08 | 36.59902 | -71.59681 | 17025 ft | 438 kts | 80° |
| 2026-04-24 22:08 | 36.60703 | -71.56132 | 17030 ft | 429 kts | 58° |
| 2026-04-24 22:09 | 36.62424 | -71.53182 | 17019 ft | 416 kts | 36° |
| 2026-04-24 22:09 | 36.64782 | -71.51261 | 17041 ft | 400 kts | 19° |
| 2026-04-24 22:09 | 36.67330 | -71.49872 | 16998 ft | 398 kts | 17° |
| 2026-04-24 22:09 | 36.69887 | -71.48506 | 17020 ft | 400 kts | 17° |
| 2026-04-24 22:10 | 36.72452 | -71.47132 | 17026 ft | 400 kts | 17° |
| 2026-04-24 22:10 | 36.74998 | -71.45761 | 17017 ft | 400 kts | 17° |
| 2026-04-24 22:10 | 36.77556 | -71.44381 | 17020 ft | 400 kts | 17° |
| 2026-04-24 22:10 | 36.80108 | -71.42997 | 17021 ft | 400 kts | 17° |
| 2026-04-24 22:11 | 36.82649 | -71.41615 | 17019 ft | 396 kts | 17° |
| 2026-04-24 22:11 | 36.85158 | -71.40243 | 17020 ft | 399 kts | 17° |
| 2026-04-24 22:11 | 36.87714 | -71.38860 | 17000 ft | 397 kts | 12° |
| 2026-04-24 22:11 | 36.90336 | -71.38347 | 17047 ft | 377 kts | 349° |
| 2026-04-24 22:12 | 36.92814 | -71.39156 | 17018 ft | 364 kts | 327° |
| 2026-04-24 22:12 | 36.94728 | -71.41133 | 17016 ft | 356 kts | 304° |
| 2026-04-24 22:12 | 36.95754 | -71.43912 | 17024 ft | 356 kts | 282° |
| 2026-04-24 22:12 | 36.95795 | -71.47012 | 17011 ft | 360 kts | 267° |
| 2026-04-24 22:13 | 36.95528 | -71.50109 | 17011 ft | 358 kts | 267° |
| 2026-04-24 22:13 | 36.95248 | -71.53220 | 17023 ft | 361 kts | 267° |
| 2026-04-24 22:13 | 36.94966 | -71.56342 | 17019 ft | 361 kts | 267° |
| 2026-04-24 22:13 | 36.94833 | -71.59431 | 17025 ft | 360 kts | 272° |
| 2026-04-24 22:14 | 36.94796 | -71.62559 | 17017 ft | 359 kts | 272° |
| 2026-04-24 22:14 | 36.94762 | -71.65691 | 17020 ft | 360 kts | 272° |
| 2026-04-24 22:14 | 36.94729 | -71.68823 | 17021 ft | 360 kts | 272° |
| 2026-04-24 22:14 | 36.94696 | -71.71946 | 17020 ft | 360 kts | 272° |
| 2026-04-24 22:15 | 36.94663 | -71.75079 | 17020 ft | 360 kts | 272° |
| 2026-04-24 22:15 | 36.94632 | -71.78217 | 17020 ft | 361 kts | 272° |
| 2026-04-24 22:15 | 36.94602 | -71.81313 | 17020 ft | 360 kts | 272° |
| 2026-04-24 22:15 | 36.94572 | -71.84448 | 17020 ft | 360 kts | 272° |
| 2026-04-24 22:16 | 36.94541 | -71.87595 | 17020 ft | 361 kts | 272° |
| 2026-04-24 22:16 | 36.94511 | -71.90732 | 17020 ft | 361 kts | 272° |
| 2026-04-24 22:16 | 36.94480 | -71.93878 | 17020 ft | 360 kts | 272° |
| 2026-04-24 22:16 | 36.94447 | -71.97015 | 17020 ft | 361 kts | 272° |
| 2026-04-24 22:17 | 36.94412 | -72.00152 | 17013 ft | 361 kts | 272° |
| 2026-04-24 22:17 | 36.94382 | -72.03251 | 17031 ft | 363 kts | 272° |
| 2026-04-24 22:17 | 36.94358 | -72.06419 | 17017 ft | 365 kts | 272° |
| 2026-04-24 22:17 | 36.94335 | -72.09592 | 17017 ft | 364 kts | 272° |
| 2026-04-24 22:18 | 36.94312 | -72.12766 | 17021 ft | 365 kts | 272° |
| 2026-04-24 22:18 | 36.94289 | -72.15933 | 17021 ft | 365 kts | 272° |
| 2026-04-24 22:18 | 36.94260 | -72.19100 | 17015 ft | 365 kts | 272° |
| 2026-04-24 22:18 | 36.94227 | -72.22271 | 17022 ft | 365 kts | 272° |
| 2026-04-24 22:19 | 36.94194 | -72.25442 | 17020 ft | 365 kts | 272° |
| 2026-04-24 22:19 | 36.94161 | -72.28613 | 17019 ft | 365 kts | 272° |
| 2026-04-24 22:19 | 36.94129 | -72.31786 | 17021 ft | 365 kts | 272° |
| 2026-04-24 22:19 | 36.94106 | -72.33927 | 17015 ft | 364 kts | 272° |
| 2026-04-24 22:20 | 36.94062 | -72.38107 | 17021 ft | 364 kts | 272° |
| 2026-04-24 22:20 | 36.94029 | -72.41273 | 17019 ft | 365 kts | 272° |
| 2026-04-24 22:20 | 36.93997 | -72.44456 | 17021 ft | 366 kts | 272° |
| 2026-04-24 22:20 | 36.93967 | -72.47635 | 17020 ft | 366 kts | 272° |
| 2026-04-24 22:21 | 36.93946 | -72.49745 | 17020 ft | 366 kts | 272° |
| 2026-04-24 22:21 | 36.93124 | -72.53806 | 17032 ft | 377 kts | 243° |
| 2026-04-24 22:21 | 36.92002 | -72.55553 | 17027 ft | 388 kts | 227° |
| 2026-04-24 22:21 | 36.88788 | -72.57650 | 17015 ft | 408 kts | 199° |
| 2026-04-24 22:22 | 36.86939 | -72.58165 | 17017 ft | 409 kts | 197° |
| 2026-04-24 22:22 | 36.84142 | -72.58888 | 17016 ft | 409 kts | 197° |
| 2026-04-24 22:22 | 36.80413 | -72.59854 | 17019 ft | 409 kts | 197° |
| 2026-04-24 22:22 | 36.78574 | -72.60329 | 17020 ft | 405 kts | 197° |
| 2026-04-24 22:23 | 36.75795 | -72.61046 | 17020 ft | 408 kts | 197° |
| 2026-04-24 22:23 | 36.73012 | -72.61768 | 17019 ft | 409 kts | 197° |
| 2026-04-24 22:23 | 36.69228 | -72.62123 | 17014 ft | 421 kts | 174° |
| 2026-04-24 22:23 | 36.66448 | -72.60879 | 17030 ft | 433 kts | 151° |
| 2026-04-24 22:24 | 36.64158 | -72.58424 | 17020 ft | 439 kts | 129° |
| 2026-04-24 22:24 | 36.62706 | -72.55088 | 17018 ft | 440 kts | 106° |
| 2026-04-24 22:24 | 36.62265 | -72.52641 | 17037 ft | 435 kts | 98° |
| 2026-04-24 22:24 | 36.61647 | -72.47629 | 17005 ft | 438 kts | 97° |
| 2026-04-24 22:25 | 36.61348 | -72.45149 | 17017 ft | 438 kts | 97° |
| 2026-04-24 22:25 | 36.60894 | -72.41398 | 17023 ft | 436 kts | 97° |
| 2026-04-24 22:25 | 36.60441 | -72.37661 | 17020 ft | 437 kts | 97° |
| 2026-04-24 22:25 | 36.59987 | -72.33909 | 17019 ft | 439 kts | 97° |
| 2026-04-24 22:26 | 36.59529 | -72.30158 | 17020 ft | 438 kts | 97° |
| 2026-04-24 22:26 | 36.59071 | -72.26415 | 17019 ft | 435 kts | 97° |
| 2026-04-24 22:26 | 36.58613 | -72.22682 | 17020 ft | 438 kts | 97° |
| 2026-04-24 22:26 | 36.58160 | -72.18979 | 17020 ft | 435 kts | 97° |
| 2026-04-24 22:27 | 36.57702 | -72.15237 | 16991 ft | 437 kts | 97° |
| 2026-04-24 22:27 | 36.57248 | -72.11519 | 17015 ft | 436 kts | 97° |
| 2026-04-24 22:27 | 36.56637 | -72.06511 | 17026 ft | 438 kts | 97° |
| 2026-04-24 22:27 | 36.56181 | -72.02773 | 17016 ft | 435 kts | 97° |
| 2026-04-24 22:28 | 36.55736 | -71.99055 | 17021 ft | 437 kts | 97° |
| 2026-04-24 22:28 | 36.55289 | -71.95297 | 17020 ft | 437 kts | 97° |
| 2026-04-24 22:28 | 36.54843 | -71.91556 | 17020 ft | 439 kts | 97° |
| 2026-04-24 22:28 | 36.54398 | -71.87833 | 17020 ft | 440 kts | 97° |
| 2026-04-24 22:29 | 36.53524 | -71.80456 | 16990 ft | 438 kts | 97° |
| 2026-04-24 22:29 | 36.53076 | -71.76715 | 16967 ft | 439 kts | 97° |
| 2026-04-24 22:29 | 36.52625 | -71.72947 | 17049 ft | 441 kts | 97° |
| 2026-04-24 22:30 | 36.52175 | -71.69187 | 17018 ft | 439 kts | 97° |
| 2026-04-24 22:30 | 36.51724 | -71.65425 | 17013 ft | 440 kts | 97° |
| 2026-04-24 22:30 | 36.51270 | -71.61657 | 17025 ft | 441 kts | 97° |
| 2026-04-24 22:30 | 36.50818 | -71.57927 | 17020 ft | 441 kts | 97° |
| 2026-04-24 22:31 | 36.50354 | -71.54108 | 17019 ft | 441 kts | 97° |
| 2026-04-24 22:31 | 36.49919 | -71.50386 | 17011 ft | 441 kts | 92° |
| 2026-04-24 22:31 | 36.50197 | -71.46630 | 17030 ft | 431 kts | 69° |
| 2026-04-24 22:31 | 36.50959 | -71.44368 | 17031 ft | 424 kts | 54° |
| 2026-04-24 22:32 | 36.52841 | -71.41626 | 17019 ft | 412 kts | 31° |
| 2026-04-24 22:32 | 36.55297 | -71.39930 | 17038 ft | 402 kts | 18° |
| 2026-04-24 22:32 | 36.57852 | -71.38575 | 16998 ft | 398 kts | 17° |
| 2026-04-24 22:32 | 36.60416 | -71.37220 | 17025 ft | 400 kts | 17° |
| 2026-04-24 22:33 | 36.62980 | -71.35863 | 17023 ft | 400 kts | 17° |
| 2026-04-24 22:33 | 36.65606 | -71.34913 | 17041 ft | 386 kts | 358° |
| 2026-04-24 22:33 | 36.68199 | -71.35306 | 17031 ft | 371 kts | 334° |
| 2026-04-24 22:33 | 36.70328 | -71.36961 | 17014 ft | 356 kts | 310° |
| 2026-04-24 22:34 | 36.71610 | -71.39532 | 17025 ft | 357 kts | 289° |
| 2026-04-24 22:34 | 36.72343 | -71.42495 | 17002 ft | 355 kts | 287° |
| 2026-04-24 22:34 | 36.73031 | -71.45468 | 17019 ft | 358 kts | 287° |
| 2026-04-24 22:34 | 36.73721 | -71.48452 | 17024 ft | 359 kts | 287° |
| 2026-04-24 22:35 | 36.74415 | -71.51435 | 17018 ft | 358 kts | 287° |
| 2026-04-24 22:35 | 36.75111 | -71.54424 | 17020 ft | 358 kts | 287° |
| 2026-04-24 22:35 | 36.75807 | -71.57414 | 17020 ft | 358 kts | 287° |
| 2026-04-24 22:35 | 36.76455 | -71.60221 | 17398 ft | 353 kts | 287° |
| 2026-04-24 22:36 | 36.77155 | -71.63227 | 16991 ft | 358 kts | 287° |
| 2026-04-24 22:36 | 36.77845 | -71.66202 | 16966 ft | 357 kts | 287° |
| 2026-04-24 22:36 | 36.78537 | -71.69195 | 17050 ft | 360 kts | 287° |
| 2026-04-24 22:36 | 36.79225 | -71.72175 | 17018 ft | 357 kts | 287° |
| 2026-04-24 22:37 | 36.79916 | -71.75168 | 17012 ft | 359 kts | 287° |
| 2026-04-24 22:37 | 36.80596 | -71.78126 | 17043 ft | 353 kts | 287° |
| 2026-04-24 22:37 | 36.81285 | -71.81114 | 17078 ft | 359 kts | 287° |
| 2026-04-24 22:37 | 36.81965 | -71.84053 | 16988 ft | 358 kts | 287° |
| 2026-04-24 22:38 | 36.82660 | -71.87042 | 17021 ft | 359 kts | 287° |
| 2026-04-24 22:38 | 36.83357 | -71.90046 | 17029 ft | 360 kts | 287° |
| 2026-04-24 22:38 | 36.84050 | -71.93048 | 17015 ft | 359 kts | 287° |
| 2026-04-24 22:38 | 36.84739 | -71.96041 | 17020 ft | 359 kts | 287° |
| 2026-04-24 22:39 | 36.85427 | -71.99044 | 17021 ft | 359 kts | 287° |
| 2026-04-24 22:39 | 36.86115 | -72.02050 | 17020 ft | 363 kts | 287° |
| 2026-04-24 22:39 | 36.86809 | -72.05066 | 17019 ft | 360 kts | 287° |
| 2026-04-24 22:39 | 36.87281 | -72.08145 | 17025 ft | 364 kts | 277° |
| 2026-04-24 22:40 | 36.87515 | -72.11293 | 16994 ft | 361 kts | 277° |
| 2026-04-24 22:40 | 36.87295 | -72.14425 | 17031 ft | 371 kts | 255° |
| 2026-04-24 22:40 | 36.86007 | -72.17251 | 17034 ft | 381 kts | 232° |
| 2026-04-24 22:40 | 36.83859 | -72.19217 | 17010 ft | 399 kts | 208° |
| 2026-04-24 22:41 | 36.81112 | -72.20022 | 17018 ft | 415 kts | 186° |
| 2026-04-24 22:41 | 36.78245 | -72.19464 | 17021 ft | 426 kts | 163° |
| 2026-04-24 22:41 | 36.75662 | -72.17593 | 17015 ft | 434 kts | 140° |
| 2026-04-24 22:41 | 36.73764 | -72.14666 | 17022 ft | 439 kts | 118° |
| 2026-04-24 22:42 | 36.72799 | -72.11087 | 17031 ft | 438 kts | 99° |
| 2026-04-24 22:42 | 36.72331 | -72.07329 | 17009 ft | 437 kts | 97° |
| 2026-04-24 22:42 | 36.71889 | -72.03582 | 17015 ft | 438 kts | 97° |
| 2026-04-24 22:42 | 36.71443 | -71.99801 | 17024 ft | 439 kts | 97° |
| 2026-04-24 22:43 | 36.71000 | -71.96068 | 17019 ft | 442 kts | 97° |
| 2026-04-24 22:43 | 36.70550 | -71.92283 | 17020 ft | 440 kts | 97° |
| 2026-04-24 22:43 | 36.70103 | -71.88499 | 17020 ft | 442 kts | 97° |
| 2026-04-24 22:43 | 36.69654 | -71.84704 | 17019 ft | 442 kts | 97° |
| 2026-04-24 22:44 | 36.69206 | -71.80917 | 17021 ft | 442 kts | 97° |
| 2026-04-24 22:44 | 36.68758 | -71.77123 | 17020 ft | 442 kts | 97° |
| 2026-04-24 22:44 | 36.68314 | -71.73370 | 17020 ft | 442 kts | 97° |
| 2026-04-24 22:44 | 36.67861 | -71.69536 | 17020 ft | 442 kts | 97° |
| 2026-04-24 22:45 | 36.67417 | -71.65792 | 17020 ft | 443 kts | 97° |
| 2026-04-24 22:45 | 36.66965 | -71.62001 | 17020 ft | 443 kts | 97° |
| 2026-04-24 22:45 | 36.66509 | -71.58203 | 17020 ft | 443 kts | 97° |
| 2026-04-24 22:45 | 36.65908 | -71.54445 | 17018 ft | 444 kts | 104° |
| 2026-04-24 22:46 | 36.65080 | -71.50724 | 17022 ft | 445 kts | 105° |
| 2026-04-24 22:46 | 36.64246 | -71.47018 | 17018 ft | 445 kts | 105° |
| 2026-04-24 22:46 | 36.63410 | -71.43307 | 17020 ft | 445 kts | 105° |
| 2026-04-24 22:46 | 36.62574 | -71.39594 | 17020 ft | 445 kts | 105° |
| 2026-04-24 22:47 | 36.61739 | -71.35893 | 17021 ft | 444 kts | 105° |
| 2026-04-24 22:47 | 36.60830 | -71.32223 | 17009 ft | 445 kts | 114° |
| 2026-04-24 22:47 | 36.59178 | -71.28989 | 17027 ft | 444 kts | 135° |
| 2026-04-24 22:47 | 36.56796 | -71.26610 | 17025 ft | 436 kts | 155° |
| 2026-04-24 22:48 | 36.53965 | -71.25357 | 17023 ft | 457 kts | 175° |
| 2026-04-24 22:48 | 36.50587 | -71.25293 | 17020 ft | 519 kts | 193° |
| 2026-04-24 22:48 | 36.46938 | -71.26585 | 17020 ft | 567 kts | 208° |
| 2026-04-24 22:48 | 36.43522 | -71.29132 | 17019 ft | 560 kts | 223° |
| 2026-04-24 22:49 | 36.40900 | -71.32495 | 17021 ft | 531 kts | 238° |
| 2026-04-24 22:49 | 36.39191 | -71.36455 | 17022 ft | 515 kts | 254° |
| 2026-04-24 22:49 | 36.38475 | -71.40752 | 17019 ft | 506 kts | 269° |
| 2026-04-24 22:49 | 36.38681 | -71.45089 | 17023 ft | 503 kts | 278° |
| 2026-04-24 22:50 | 36.39132 | -71.49335 | 17009 ft | 503 kts | 278° |
| 2026-04-24 22:50 | 36.39605 | -71.53648 | 17022 ft | 503 kts | 278° |
| 2026-04-24 22:50 | 36.40077 | -71.57957 | 17019 ft | 504 kts | 278° |
| 2026-04-24 22:50 | 36.40547 | -71.62264 | 17020 ft | 504 kts | 278° |
| 2026-04-24 22:51 | 36.41019 | -71.66597 | 17020 ft | 505 kts | 278° |
| 2026-04-24 22:51 | 36.41489 | -71.70926 | 17020 ft | 505 kts | 278° |
| 2026-04-24 22:51 | 36.41958 | -71.75253 | 17019 ft | 505 kts | 278° |
| 2026-04-24 22:51 | 36.42419 | -71.79527 | 17020 ft | 506 kts | 278° |
| 2026-04-24 22:52 | 36.42885 | -71.83857 | 17020 ft | 506 kts | 278° |
| 2026-04-24 22:52 | 36.43350 | -71.88192 | 17020 ft | 507 kts | 278° |
| 2026-04-24 22:52 | 36.43815 | -71.92546 | 17020 ft | 507 kts | 278° |
| 2026-04-24 22:52 | 36.44278 | -71.96884 | 17020 ft | 507 kts | 278° |
| 2026-04-24 22:53 | 36.44739 | -72.01221 | 17020 ft | 507 kts | 278° |
| 2026-04-24 22:53 | 36.45200 | -72.05578 | 17020 ft | 508 kts | 278° |
| 2026-04-24 22:53 | 36.45661 | -72.09936 | 17020 ft | 509 kts | 278° |
| 2026-04-24 22:53 | 36.46120 | -72.14296 | 17021 ft | 509 kts | 278° |
| 2026-04-24 22:54 | 36.46577 | -72.18650 | 17020 ft | 508 kts | 278° |
| 2026-04-24 22:54 | 36.47032 | -72.23002 | 17019 ft | 508 kts | 278° |
| 2026-04-24 22:54 | 36.47485 | -72.27345 | 17020 ft | 508 kts | 278° |
| 2026-04-24 22:54 | 36.47938 | -72.31706 | 17020 ft | 508 kts | 278° |
| 2026-04-24 22:55 | 36.48388 | -72.36054 | 17020 ft | 508 kts | 278° |
| 2026-04-24 22:55 | 36.48837 | -72.40409 | 17020 ft | 508 kts | 278° |
| 2026-04-24 22:55 | 36.49279 | -72.44710 | 17020 ft | 508 kts | 278° |
| 2026-04-24 22:55 | 36.49727 | -72.49074 | 17019 ft | 508 kts | 278° |
| 2026-04-24 22:56 | 36.50172 | -72.53434 | 17020 ft | 507 kts | 278° |
| 2026-04-24 22:56 | 36.50614 | -72.57778 | 17020 ft | 507 kts | 278° |
| 2026-04-24 22:56 | 36.51055 | -72.62132 | 17020 ft | 507 kts | 278° |
| 2026-04-24 22:56 | 36.51495 | -72.66487 | 17020 ft | 507 kts | 278° |
| 2026-04-24 22:57 | 36.51934 | -72.70842 | 17019 ft | 507 kts | 278° |
| 2026-04-24 22:57 | 36.52371 | -72.75195 | 17020 ft | 507 kts | 278° |
| 2026-04-24 22:57 | 36.52802 | -72.79499 | 17020 ft | 507 kts | 278° |
| 2026-04-24 22:57 | 36.53235 | -72.83842 | 17020 ft | 507 kts | 278° |
| 2026-04-24 22:58 | 36.53669 | -72.88210 | 17022 ft | 507 kts | 278° |
| 2026-04-24 22:58 | 36.54100 | -72.92563 | 17019 ft | 507 kts | 278° |
| 2026-04-24 22:58 | 36.54532 | -72.96937 | 17021 ft | 508 kts | 278° |
| 2026-04-24 22:58 | 36.54956 | -73.01256 | 17020 ft | 508 kts | 278° |
| 2026-04-24 22:59 | 36.55390 | -73.05671 | 17019 ft | 508 kts | 278° |
| 2026-04-24 22:59 | 36.55811 | -73.09981 | 17023 ft | 508 kts | 278° |
| 2026-04-24 22:59 | 36.56660 | -73.18703 | 17020 ft | 507 kts | 278° |
| 2026-04-24 23:00 | 36.57083 | -73.23067 | 17024 ft | 508 kts | 278° |
| 2026-04-24 23:00 | 36.57504 | -73.27431 | 17019 ft | 509 kts | 278° |
| 2026-04-24 23:00 | 36.57926 | -73.31818 | 17021 ft | 509 kts | 278° |
| 2026-04-24 23:00 | 36.58345 | -73.36194 | 17020 ft | 510 kts | 278° |
| 2026-04-24 23:01 | 36.58763 | -73.40576 | 17020 ft | 510 kts | 278° |
| 2026-04-24 23:01 | 36.59181 | -73.44960 | 17019 ft | 510 kts | 278° |
| 2026-04-24 23:01 | 36.59590 | -73.49282 | 17021 ft | 510 kts | 278° |
| 2026-04-24 23:01 | 36.60010 | -73.53728 | 17020 ft | 510 kts | 278° |
| 2026-04-24 23:02 | 36.60419 | -73.58070 | 17020 ft | 511 kts | 278° |
| 2026-04-24 23:02 | 36.60831 | -73.62451 | 17020 ft | 511 kts | 277° |
| 2026-04-24 23:02 | 36.61243 | -73.66859 | 17020 ft | 511 kts | 277° |
| 2026-04-24 23:02 | 36.61654 | -73.71258 | 17020 ft | 511 kts | 277° |
| 2026-04-24 23:03 | 36.62063 | -73.75655 | 17020 ft | 511 kts | 277° |
| 2026-04-24 23:03 | 36.62470 | -73.80056 | 17020 ft | 511 kts | 277° |
| 2026-04-24 23:03 | 36.62876 | -73.84453 | 17020 ft | 511 kts | 277° |
| 2026-04-24 23:03 | 36.63281 | -73.88851 | 17020 ft | 511 kts | 277° |
| 2026-04-24 23:04 | 36.63684 | -73.93243 | 17020 ft | 511 kts | 277° |
| 2026-04-24 23:04 | 36.64086 | -73.97637 | 17020 ft | 511 kts | 277° |
| 2026-04-24 23:04 | 36.64487 | -74.02037 | 17020 ft | 512 kts | 277° |
| 2026-04-24 23:04 | 36.64882 | -74.06385 | 17021 ft | 512 kts | 277° |
| 2026-04-24 23:05 | 36.65282 | -74.10808 | 17020 ft | 513 kts | 277° |
| 2026-04-24 23:05 | 36.65682 | -74.15233 | 17020 ft | 513 kts | 277° |
| 2026-04-24 23:05 | 36.66079 | -74.19650 | 17020 ft | 513 kts | 277° |
| 2026-04-24 23:05 | 36.66475 | -74.24065 | 17020 ft | 513 kts | 277° |
| 2026-04-24 23:06 | 36.66871 | -74.28496 | 17019 ft | 513 kts | 277° |
| 2026-04-24 23:06 | 36.67264 | -74.32911 | 17020 ft | 513 kts | 277° |
| 2026-04-24 23:06 | 36.67657 | -74.37336 | 17020 ft | 514 kts | 277° |
| 2026-04-24 23:06 | 36.68048 | -74.41767 | 17020 ft | 514 kts | 277° |
| 2026-04-24 23:07 | 36.68434 | -74.46143 | 17020 ft | 514 kts | 277° |
| 2026-04-24 23:07 | 36.68823 | -74.50569 | 17020 ft | 514 kts | 277° |
| 2026-04-24 23:07 | 36.69212 | -74.55005 | 17020 ft | 514 kts | 277° |
| 2026-04-24 23:07 | 36.69598 | -74.59434 | 17021 ft | 514 kts | 277° |
| 2026-04-24 23:08 | 36.69983 | -74.63861 | 17020 ft | 514 kts | 277° |
| 2026-04-24 23:08 | 36.70370 | -74.68308 | 17020 ft | 514 kts | 277° |
| 2026-04-24 23:08 | 36.70753 | -74.72737 | 17020 ft | 514 kts | 277° |
| 2026-04-24 23:08 | 36.71135 | -74.77166 | 17017 ft | 515 kts | 277° |
| 2026-04-24 23:09 | 36.71515 | -74.81602 | 17021 ft | 515 kts | 277° |
| 2026-04-24 23:09 | 36.71897 | -74.86048 | 17020 ft | 515 kts | 277° |
| 2026-04-24 23:09 | 36.72277 | -74.90493 | 17020 ft | 515 kts | 277° |
| 2026-04-24 23:09 | 36.72656 | -74.94946 | 17021 ft | 515 kts | 277° |
| 2026-04-24 23:10 | 36.73074 | -74.99335 | 17022 ft | 515 kts | 278° |
| 2026-04-24 23:10 | 36.73551 | -75.03774 | 17020 ft | 516 kts | 278° |
| 2026-04-24 23:10 | 36.73988 | -75.08218 | 17021 ft | 516 kts | 277° |
| 2026-04-24 23:10 | 36.74426 | -75.12670 | 17020 ft | 516 kts | 278° |
| 2026-04-24 23:11 | 36.74812 | -75.17121 | 17021 ft | 517 kts | 277° |
| 2026-04-24 23:11 | 36.75173 | -75.21573 | 17021 ft | 517 kts | 277° |
| 2026-04-24 23:11 | 36.75533 | -75.26047 | 17020 ft | 517 kts | 277° |
| 2026-04-24 23:11 | 36.75891 | -75.30510 | 17019 ft | 518 kts | 277° |
| 2026-04-24 23:12 | 36.76244 | -75.34917 | 17020 ft | 518 kts | 277° |
| 2026-04-24 23:12 | 36.76601 | -75.39392 | 17020 ft | 518 kts | 277° |
| 2026-04-24 23:12 | 36.76957 | -75.43859 | 17020 ft | 518 kts | 277° |
| 2026-04-24 23:12 | 36.77313 | -75.48338 | 16741 ft | 523 kts | 276° |
| 2026-04-24 23:13 | 36.77670 | -75.52902 | 15890 ft | 533 kts | 276° |
| 2026-04-24 23:13 | 36.78038 | -75.57528 | 15011 ft | 537 kts | 276° |
| 2026-04-24 23:13 | 36.78407 | -75.62169 | 14129 ft | 537 kts | 276° |
| 2026-04-24 23:13 | 36.78775 | -75.66792 | 13252 ft | 534 kts | 276° |
| 2026-04-24 23:14 | 36.79069 | -75.70720 | 12498 ft | 496 kts | 275° |
| 2026-04-24 23:14 | 36.79255 | -75.74862 | 11633 ft | 464 kts | 276° |
| 2026-04-24 23:14 | 36.79752 | -75.78638 | 10401 ft | 431 kts | 284° |
| 2026-04-24 23:14 | 36.80617 | -75.82092 | 9095 ft | 399 kts | 292° |
| 2026-04-24 23:15 | 36.81755 | -75.84877 | 8225 ft | 315 kts | 302° |
| 2026-04-24 23:15 | 36.82565 | -75.86332 | 7664 ft | 301 kts | 303° |
| 2026-04-24 23:15 | 36.83689 | -75.88421 | 6805 ft | 279 kts | 304° |
| 2026-04-24 23:15 | 36.84848 | -75.90289 | 6000 ft | 266 kts | 308° |
| 2026-04-24 23:16 | 36.85854 | -75.91937 | 5250 ft | 213 kts | 302° |
| 2026-04-24 23:16 | 36.86482 | -75.93542 | 4464 ft | 205 kts | 285° |
| 2026-04-24 23:16 | 36.86717 | -75.95254 | 3873 ft | 194 kts | 269° |
| 2026-04-24 23:16 | 36.86552 | -75.96775 | 3270 ft | 166 kts | 259° |
| 2026-04-24 23:17 | 36.86124 | -75.98042 | 2490 ft | 154 kts | 242° |
| 2026-04-24 23:17 | 36.85540 | -75.99169 | 1555 ft | 153 kts | 233° |
| 2026-04-24 23:17 | 36.84791 | -76.00164 | 864 ft | 161 kts | 224° |
| 2026-04-24 23:17 | 36.84004 | -76.01098 | 342 ft | 153 kts | 222° |
| 2026-04-24 23:18 | 36.83227 | -76.02000 | 101 ft | 152 kts | 220° |
| 2026-04-24 23:18 | 36.82481 | -76.02811 | 30 ft | 107 kts | 220° |
| 2026-04-24 23:18 | 36.82242 | -76.03076 | 30 ft | 13 kts | 222° |
| 2026-04-24 23:18 | 36.82158 | -76.03172 | 30 ft | 20 kts | 224° |
| 2026-04-24 23:19 | 36.82057 | -76.03290 | 30 ft | 21 kts | 223° |
| 2026-04-24 23:19 | 36.81924 | -76.03441 | 30 ft | 27 kts | 220° |
| 2026-04-24 23:19 | 36.81831 | -76.03532 | 30 ft | 8 kts | 175° |
| 2026-04-24 23:19 | 36.81789 | -76.03473 | 30 ft | 9 kts | 129° |
| 2026-04-24 23:20 | 36.81729 | -76.03435 | 30 ft | 11 kts | 140° |
| 2026-04-24 23:20 | 36.81688 | -76.03387 | 30 ft | 8 kts | 159° |
| 2026-04-24 23:20 | 36.81657 | -76.03390 | 30 ft | 6 kts | 220° |
| 2026-04-24 23:20 | 36.81655 | -76.03392 | 30 ft | 0 kts | 221° |